AirNav   Bose ProFlight Series 2 Headset
 
 821 users online  

92FD Nierenberg Estate Heliport
Melbourne, Florida, USA

GOING TO MELBOURNE?


FAA INFORMATION EFFECTIVE 30 JANUARY 2020

Location

FAA Identifier: 92FD
Lat/Long: 28-13-06.0400N 080-41-03.1930W
28-13.100667N 080-41.053217W
28.2183444,-80.6842203
(estimated)
Elevation: 32 ft. / 10 m (estimated)
Variation: 04W (1990)
From city: 10 miles N of MELBOURNE, FL
Time zone: UTC -5 (UTC -4 during Daylight Saving Time)
Zip code: 32940

Heliport Operations

Heliport use: Private use. Permission required prior to landing
Activation date: 04/1993
Control tower: no
ARTCC: JACKSONVILLE CENTER
FSS: SAINT PETERSBURG FLIGHT SERVICE STATION
Attendance: UNATNDD
Segmented circle: no

Heliport Communications

WX ASOS at MLB (7 nm S): PHONE 321-951-7575
WX AWOS-3 at COI (7 nm N): 119.025 (321-986-8864)
WX AWOS-3 at X59 (17 nm SE): 122.725
WX AWOS-3PT at TIX (19 nm N): 120.625 (321-567-6090)

Nearby radio navigation aids

VOR radial/distance  VOR name  Freq  Var
MLBr346/7.3MELBOURNE VOR/DME110.0007W
TRVr349/34.0TREASURE VORTAC117.3007W
ORLr120/39.5ORLANDO VORTAC112.2000E

Heliport Services

Runway Information

Helipad H1

Dimensions: 25 x 10 ft. / 8 x 3 m
Surface: concrete
Traffic pattern: leftleft

Heliport Ownership and Management from official FAA records

Ownership: Privately-owned
Owner: BRUCE NIERENBERG
700 JORDAN BLASS DRIVE
MELBOURNE, FL 32940
Phone (321) 863-8106
OWNER: JOHN W. WALDEN
Manager: JOHN W. WALDEN
700 JORDAN BLASS DRIVE
MELBOURNE, FL 32940
Phone (321) 863-8106

Additional Remarks

FOR CD CTC ORLANDO APCH AT 407-852-7553.

Instrument Procedures

There are no published instrument procedures at 92FD.

Some nearby airports with instrument procedures:

KCOF - Patrick Air Force Base (4 nm E)
KMLB - Melbourne International Airport (7 nm S)
KCOI - Merritt Island Airport (7 nm N)
KXMR - Cape Canaveral Air Force Station Skid Strip (16 nm NE)
KTIX - Space Coast Regional Airport (19 nm N)
 
Loc | Ops | Rwys | IFR | FBO | Links
Com | Nav | Svcs | Stats | Notes


 
Area around 92FD (Nierenberg Estate Heliport)
 
Road maps at: MapQuest Bing Google
 
Aerial photo
No photo
 
Sectional chart

 
Airport distance calculator
Flying to Nierenberg Estate Heliport? Find the distance to fly.

From to 92FD

Sunrise and sunset
Times for 23-Feb-2020
 Local
(UTC-5)
 Zulu
(UTC)
Morning civil twilight06:3111:31
Sunrise06:5411:54
Sunset18:1823:18
Evening civil twilight18:4223:42

Current date and time
Zulu (UTC)  23-Feb-2020 13:42:17
Local (UTC-5)  23-Feb-2020 08:42:17
 
METAR
KCOF 
5nm E 
231256Z AUTO 29005KT 10SM CLR 17/15 A3024 RMK AO2 SLP245 T01690147 $
KMLB 
7nm S 
231253Z 26004KT 9SM CLR 13/13 A3024 RMK AO2 SLP241 T01280128 $
KXMR 
17nm NE 
231256Z AUTO 03006KT 4SM BR CLR 16/14 A3023 RMK AO2 SLP240 T01620142 $
KTIX 
19nm N 
231250Z VRB03KT 7SM BKN070 16/12 A3025
TAF
KCOF 
5nm E 
231100Z 2311/2417 VRB06KT 9999 SCT050 QNH3017INS BECMG 2316/2317 10012KT 9999 SCT060 QNH3015INS BECMG 2404/2405 13008KT 9999 FEW045 SCT180 QNH3010INS TX23/2318Z TN16/2411Z
KMLB 
7nm S 
231120Z 2312/2412 VRB05KT P6SM FEW060 FM231500 09010KT P6SM SCT035 SCT250 FM240000 11006KT P6SM SCT035 SCT250
KTIX 
19nm N 
231120Z 2312/2412 35005KT P6SM FEW050 FM231500 09009KT P6SM SCT035 FM240000 10006KT P6SM FEW035 SCT250
NOTAMs
Click for the latest NOTAMs
NOTAMs are issued by the DoD/FAA and will open in a separate window not controlled by AirNav.

 

 
 

Would you like to see your business listed on this page?

 If your business provides an interesting product or service to pilots, flight crews, aircraft, or users of the Nierenberg Estate Heliport, you should consider listing it here.  To start the listing process, click on the button below
 
Add a business
 

Other Pages about Nierenberg Estate Heliport

Update a link
 
Copyright © AirNav, LLC. All rights reserved. Privacy Policy  Contact